Aérodrome :
LOGIN :

S'inscrire | Disclaimer

   EN    FR    IT 

 










Légende :    VFR   VFR Marginal   IFR   IFR Intensif   IFR Très Intensif
Visi : 
Plafond : 
>= 8 km
>= 3000ft
5 à 8 km
1000 à 3000 ft
1500m à 5 km
500 à 1000 ft
800 à 1500m
200 à 500 ft
< 800m
< 200 ft
Symboles :   Orages  Brouillard  Fortes neiges  Fortes précipitations  Vent > 20 kt
SIGMETs :   Divers  Orages  Givrage  Turbulence  Onde Orograph.  Cendres Volcan.







- Altitude de l'aérodrome : 112 ft
- Code IATA : SVQ


LEZL - Sevilla San Pablo

DERNIER METAR :
  • 222130Z 22008KT CAVOK 25/18 Q1019 NOSIG

METARs EXPIRÉS :
  • 222100Z 21008KT CAVOK 26/18 Q1018 NOSIG
  • 222030Z 21008KT CAVOK 27/17 Q1018 NOSIG
  • 222000Z 21009KT CAVOK 28/17 Q1017 NOSIG
  • 221930Z 22009KT 190V250 CAVOK 29/16 Q1017 NOSIG
  • 221900Z 22009KT 190V250 CAVOK 30/15 Q1017 NOSIG

TAF TAF LEZL
Valide du 22 à 21h jusqu'au 23 à 21h UTC


222000Z 2221/2321 22008KT CAVOK TX35/2315Z TN19/2306Z
BECMG 2301/2303 VRB03KT
BECMG 2316/2318 23009KT
Pas de NOTAMs connus pour ce terrain.



MET'MAP, la Météo Aéronautique d'un coup d'oeil ! - Copyright ORBIFLY Décembre 2007 - Disclaimer

ORBIFLY MET'MAP TEAM :

Programmation & Développement : Alexandra Zaïnal
Conception & Développement : Baudouin d'Aumeries
Co-Programmation & Développement : Marc-Olivier Méhu
Soutien technique & logistique : Manuel Goepfert

Contact : metmap@orbifly.com




SOURCES & CREDITS :

   NOAA